Whiting, Iowa
Current Conditions -  °F | °C
As of 11:52 AM on Sunday 23 Nov 2014 (Local Time) from KSUX Reporting Station
Overcast Overcast  
Wind Chill: 35°   Ceiling: 7000
Heat Index: 45°   Visibility: 10mi
Dew Point: 37°   Wind: 29mph
Humidity: 74%   Direction: 330°NNW
Pressure: 29.5"   Gusts: 36mph
Location:  42.13°N, 96.15°W
Report Text: KSUX 231752Z 33025G31KT 10SM FEW018 FEW060 OVC070 07/03 A2950 RMK AO2 PK WND 33034/1734 SLP994 T00720028 10106 20072 58003
Loading
Personal Weather Stations






























Interactive Weather Map New forecast layout! Learn more

10-Day Weather Forecast

Advertisements
Track Severe Weather on mobile